Terminal Aerodrome Forecast
Issued by NWS St Louis, MO

Home | Current Version | Previous Version | Text Only | Print | Product List | Glossary On
Versions: 1 2 3 4 5 6 7 8 9 10 11 12 13 14 15 16 17
000
FTUS43 KLSX 260739 AAA
TAFCOU
TAF AMD
KCOU 260739Z 2608/2706 17008KT P6SM BKN060
     FM260900 19009KT P6SM BKN050
      TEMPO 2609/2612 VRB30KT 4SM TSRA BKN035CB
     FM261300 15008KT P6SM BKN050
     FM262000 15009KT P6SM SCT120
     FM270400 15009KT P6SM -SHRA BKN090=

USA.gov is the U.S. government's official web portal to all federal, state and local government web resources and services.